sensor_id;sensor_type;location;lat;lon;timestamp;pressure;altitude;pressure_sealevel;temperature;humidity
71567;BME280;59403;47.456;19.120;2022-11-21T00:02:12;99870.53;;;0.28;100.00
71567;BME280;59403;47.456;19.120;2022-11-21T00:04:39;99866.75;;;0.32;100.00
71567;BME280;59403;47.456;19.120;2022-11-21T00:07:05;99859.56;;;0.35;100.00
71567;BME280;59403;47.456;19.120;2022-11-21T00:09:32;99851.03;;;0.33;100.00
71567;BME280;59403;47.456;19.120;2022-11-21T00:12:02;99851.75;;;0.35;100.00
71567;BME280;59403;47.456;19.120;2022-11-21T00:14:29;99843.22;;;0.33;100.00
71567;BME280;59403;47.456;19.120;2022-11-21T00:16:56;99847.78;;;0.30;100.00
71567;BME280;59403;47.456;19.120;2022-11-21T00:19:23;99844.16;;;0.32;100.00
71567;BME280;59403;47.456;19.120;2022-11-21T00:21:50;99845.81;;;0.33;100.00
71567;BME280;59403;47.456;19.120;2022-11-21T00:24:17;99845.19;;;0.30;100.00
71567;BME280;59403;47.456;19.120;2022-11-21T00:26:44;99839.97;;;0.30;100.00
71567;BME280;59403;47.456;19.120;2022-11-21T00:29:12;99836.56;;;0.29;100.00
71567;BME280;59403;47.456;19.120;2022-11-21T00:31:39;99835.72;;;0.29;100.00
71567;BME280;59403;47.456;19.120;2022-11-21T00:34:07;99827.28;;;0.25;100.00
71567;BME280;59403;47.456;19.120;2022-11-21T00:36:34;99832.63;;;0.24;100.00
71567;BME280;59403;47.456;19.120;2022-11-21T00:39:01;99824.81;;;0.24;100.00
71567;BME280;59403;47.456;19.120;2022-11-21T00:41:28;99816.16;;;0.23;100.00
71567;BME280;59403;47.456;19.120;2022-11-21T00:43:55;99821.13;;;0.26;100.00
71567;BME280;59403;47.456;19.120;2022-11-21T00:46:23;99823.03;;;0.24;100.00
71567;BME280;59403;47.456;19.120;2022-11-21T00:48:50;99827.28;;;0.25;100.00
71567;BME280;59403;47.456;19.120;2022-11-21T00:51:17;99829.16;;;0.23;100.00
71567;BME280;59403;47.456;19.120;2022-11-21T00:53:44;99830.84;;;0.24;100.00
71567;BME280;59403;47.456;19.120;2022-11-21T00:56:11;99826.56;;;0.23;100.00
71567;BME280;59403;47.456;19.120;2022-11-21T00:58:38;99822.31;;;0.22;100.00
71567;BME280;59403;47.456;19.120;2022-11-21T01:01:07;99812.63;;;0.24;100.00
71567;BME280;59403;47.456;19.120;2022-11-21T01:03:36;99809.50;;;0.19;100.00
71567;BME280;59403;47.456;19.120;2022-11-21T01:06:04;99811.28;;;0.19;100.00
71567;BME280;59403;47.456;19.120;2022-11-21T01:08:34;99826.78;;;0.20;100.00
71567;BME280;59403;47.456;19.120;2022-11-21T01:11:02;99823.34;;;0.20;100.00
71567;BME280;59403;47.456;19.120;2022-11-21T01:13:30;99827.00;;;0.17;100.00
71567;BME280;59403;47.456;19.120;2022-11-21T01:16:01;99811.56;;;0.14;100.00
71567;BME280;59403;47.456;19.120;2022-11-21T01:18:29;99802.44;;;0.09;100.00
71567;BME280;59403;47.456;19.120;2022-11-21T01:20:59;99806.69;;;0.10;100.00
71567;BME280;59403;47.456;19.120;2022-11-21T01:23:26;99807.66;;;0.09;100.00
71567;BME280;59403;47.456;19.120;2022-11-21T01:25:53;99804.44;;;0.05;100.00
71567;BME280;59403;47.456;19.120;2022-11-21T01:28:20;99815.97;;;0.01;100.00
71567;BME280;59403;47.456;19.120;2022-11-21T01:30:47;99812.63;;;-0.01;100.00
71567;BME280;59403;47.456;19.120;2022-11-21T01:33:14;99804.72;;;0.00;100.00
71567;BME280;59403;47.456;19.120;2022-11-21T01:35:41;99807.22;;;0.02;100.00
71567;BME280;59403;47.456;19.120;2022-11-21T01:38:10;99806.69;;;-0.03;100.00
71567;BME280;59403;47.456;19.120;2022-11-21T01:40:37;99797.13;;;-0.03;100.00
71567;BME280;59403;47.456;19.120;2022-11-21T01:43:10;99789.84;;;-0.10;100.00
71567;BME280;59403;47.456;19.120;2022-11-21T01:45:55;99789.53;;;-0.06;100.00
71567;BME280;59403;47.456;19.120;2022-11-21T01:48:26;99785.59;;;0.02;100.00
71567;BME280;59403;47.456;19.120;2022-11-21T01:50:55;99792.44;;;0.03;100.00
71567;BME280;59403;47.456;19.120;2022-11-21T01:55:53;99791.94;;;-0.03;100.00
71567;BME280;59403;47.456;19.120;2022-11-21T01:58:21;99787.97;;;-0.08;100.00
71567;BME280;59403;47.456;19.120;2022-11-21T02:04:26;99796.91;;;-0.12;100.00
71567;BME280;59403;47.456;19.120;2022-11-21T02:06:57;99789.22;;;-0.14;100.00
71567;BME280;59403;47.456;19.120;2022-11-21T02:09:25;99794.31;;;-0.12;100.00
71567;BME280;59403;47.456;19.120;2022-11-21T02:11:58;99794.94;;;-0.09;100.00
71567;BME280;59403;47.456;19.120;2022-11-21T02:14:28;99795.47;;;-0.04;100.00
71567;BME280;59403;47.456;19.120;2022-11-21T02:16:57;99796.50;;;-0.06;100.00
71567;BME280;59403;47.456;19.120;2022-11-21T02:19:33;99788.91;;;-0.09;100.00
71567;BME280;59403;47.456;19.120;2022-11-21T02:22:08;99780.69;;;-0.28;100.00
71567;BME280;59403;47.456;19.120;2022-11-21T02:24:44;99777.88;;;-0.38;100.00
71567;BME280;59403;47.456;19.120;2022-11-21T02:27:13;99774.44;;;-0.26;100.00
71567;BME280;59403;47.456;19.120;2022-11-21T02:29:42;99780.37;;;-0.24;100.00
71567;BME280;59403;47.456;19.120;2022-11-21T02:32:19;99767.03;;;-0.19;100.00
71567;BME280;59403;47.456;19.120;2022-11-21T02:34:47;99771.31;;;-0.18;100.00
71567;BME280;59403;47.456;19.120;2022-11-21T02:37:14;99772.16;;;-0.18;100.00
71567;BME280;59403;47.456;19.120;2022-11-21T02:39:41;99770.38;;;-0.17;100.00
71567;BME280;59403;47.456;19.120;2022-11-21T02:42:15;99774.66;;;-0.16;100.00
71567;BME280;59403;47.456;19.120;2022-11-21T02:44:50;99765.41;;;-0.20;100.00
71567;BME280;59403;47.456;19.120;2022-11-21T02:47:20;99768.00;;;-0.20;100.00
71567;BME280;59403;47.456;19.120;2022-11-21T02:49:54;99772.69;;;-0.25;100.00
71567;BME280;59403;47.456;19.120;2022-11-21T02:52:25;99772.78;;;-0.27;100.00
71567;BME280;59403;47.456;19.120;2022-11-21T02:54:52;99774.56;;;-0.27;100.00
71567;BME280;59403;47.456;19.120;2022-11-21T02:57:20;99778.00;;;-0.27;100.00
71567;BME280;59403;47.456;19.120;2022-11-21T02:59:47;99780.69;;;-0.28;100.00
71567;BME280;59403;47.456;19.120;2022-11-21T03:02:14;99782.34;;;-0.40;100.00
71567;BME280;59403;47.456;19.120;2022-11-21T03:04:41;99783.81;;;-0.36;100.00
71567;BME280;59403;47.456;19.120;2022-11-21T03:07:08;99781.09;;;-0.34;100.00
71567;BME280;59403;47.456;19.120;2022-11-21T03:09:34;99787.03;;;-0.32;100.00
71567;BME280;59403;47.456;19.120;2022-11-21T03:12:05;99791.22;;;-0.30;100.00
71567;BME280;59403;47.456;19.120;2022-11-21T03:14:34;99789.31;;;-0.28;100.00
71567;BME280;59403;47.456;19.120;2022-11-21T03:17:01;99780.19;;;-0.33;100.00
71567;BME280;59403;47.456;19.120;2022-11-21T03:19:28;99775.59;;;-0.42;100.00
71567;BME280;59403;47.456;19.120;2022-11-21T03:21:55;99767.38;;;-0.36;100.00
71567;BME280;59403;47.456;19.120;2022-11-21T03:24:22;99771.03;;;-0.39;100.00
71567;BME280;59403;47.456;19.120;2022-11-21T03:26:49;99770.06;;;-0.38;100.00
71567;BME280;59403;47.456;19.120;2022-11-21T03:29:16;99775.06;;;-0.35;100.00
71567;BME280;59403;47.456;19.120;2022-11-21T03:31:44;99766.63;;;-0.38;100.00
71567;BME280;59403;47.456;19.120;2022-11-21T03:34:11;99763.34;;;-0.40;100.00
71567;BME280;59403;47.456;19.120;2022-11-21T03:36:38;99760.62;;;-0.39;100.00
71567;BME280;59403;47.456;19.120;2022-11-21T03:39:05;99755.72;;;-0.43;100.00
71567;BME280;59403;47.456;19.120;2022-11-21T03:41:32;99758.94;;;-0.40;100.00
71567;BME280;59403;47.456;19.120;2022-11-21T03:44:01;99751.25;;;-0.41;100.00
71567;BME280;59403;47.456;19.120;2022-11-21T03:46:30;99747.72;;;-0.53;100.00
71567;BME280;59403;47.456;19.120;2022-11-21T03:48:59;99748.44;;;-0.51;100.00
71567;BME280;59403;47.456;19.120;2022-11-21T03:51:27;99742.00;;;-0.45;100.00
71567;BME280;59403;47.456;19.120;2022-11-21T03:53:54;99745.31;;;-0.43;100.00
71567;BME280;59403;47.456;19.120;2022-11-21T03:56:21;99740.09;;;-0.43;100.00
71567;BME280;59403;47.456;19.120;2022-11-21T03:58:48;99746.59;;;-0.49;100.00
71567;BME280;59403;47.456;19.120;2022-11-21T04:01:16;99743.13;;;-0.49;100.00
71567;BME280;59403;47.456;19.120;2022-11-21T04:03:43;99742.81;;;-0.45;100.00
71567;BME280;59403;47.456;19.120;2022-11-21T04:06:13;99741.78;;;-0.42;100.00
71567;BME280;59403;47.456;19.120;2022-11-21T04:08:40;99748.84;;;-0.44;100.00
71567;BME280;59403;47.456;19.120;2022-11-21T04:11:07;99744.16;;;-0.52;100.00
71567;BME280;59403;47.456;19.120;2022-11-21T04:13:34;99750.00;;;-0.48;100.00
71567;BME280;59403;47.456;19.120;2022-11-21T04:16:03;99743.13;;;-0.49;100.00
71567;BME280;59403;47.456;19.120;2022-11-21T04:18:30;99739.41;;;-0.45;100.00
71567;BME280;59403;47.456;19.120;2022-11-21T04:20:57;99735.75;;;-0.43;100.00
71567;BME280;59403;47.456;19.120;2022-11-21T04:23:26;99725.25;;;-0.41;100.00
71567;BME280;59403;47.456;19.120;2022-11-21T04:25:53;99724.50;;;-0.43;100.00
71567;BME280;59403;47.456;19.120;2022-11-21T04:28:20;99731.38;;;-0.42;100.00
71567;BME280;59403;47.456;19.120;2022-11-21T04:30:47;99728.34;;;-0.36;100.00
71567;BME280;59403;47.456;19.120;2022-11-21T04:33:17;99731.78;;;-0.36;100.00
71567;BME280;59403;47.456;19.120;2022-11-21T04:35:45;99722.12;;;-0.34;100.00
71567;BME280;59403;47.456;19.120;2022-11-21T04:38:13;99712.00;;;-0.38;100.00
71567;BME280;59403;47.456;19.120;2022-11-21T04:40:41;99720.25;;;-0.32;100.00
71567;BME280;59403;47.456;19.120;2022-11-21T04:43:08;99723.88;;;-0.34;100.00
71567;BME280;59403;47.456;19.120;2022-11-21T04:45:35;99723.03;;;-0.35;100.00
71567;BME280;59403;47.456;19.120;2022-11-21T04:48:02;99719.31;;;-0.31;100.00
71567;BME280;59403;47.456;19.120;2022-11-21T04:50:30;99722.75;;;-0.30;100.00
71567;BME280;59403;47.456;19.120;2022-11-21T04:52:57;99712.22;;;-0.29;100.00
71567;BME280;59403;47.456;19.120;2022-11-21T04:55:27;99709.63;;;-0.29;100.00
71567;BME280;59403;47.456;19.120;2022-11-21T04:57:56;99712.84;;;-0.38;100.00
71567;BME280;59403;47.456;19.120;2022-11-21T05:00:23;99703.59;;;-0.42;100.00
71567;BME280;59403;47.456;19.120;2022-11-21T05:02:50;99706.13;;;-0.40;100.00
71567;BME280;59403;47.456;19.120;2022-11-21T05:05:17;99691.44;;;-0.41;100.00
71567;BME280;59403;47.456;19.120;2022-11-21T05:07:44;99700.59;;;-0.36;100.00
71567;BME280;59403;47.456;19.120;2022-11-21T05:10:11;99696.84;;;-0.44;100.00
71567;BME280;59403;47.456;19.120;2022-11-21T05:12:38;99699.34;;;-0.43;100.00
71567;BME280;59403;47.456;19.120;2022-11-21T05:15:24;99697.69;;;-0.56;100.00
71567;BME280;59403;47.456;19.120;2022-11-21T05:17:50;99704.75;;;-0.71;100.00
71567;BME280;59403;47.456;19.120;2022-11-21T05:20:17;99706.31;;;-0.68;100.00
71567;BME280;59403;47.456;19.120;2022-11-21T05:22:50;99709.22;;;-0.60;100.00
71567;BME280;59403;47.456;19.120;2022-11-21T05:25:17;99709.44;;;-0.63;100.00
71567;BME280;59403;47.456;19.120;2022-11-21T05:27:44;99706.00;;;-0.64;100.00
71567;BME280;59403;47.456;19.120;2022-11-21T05:30:11;99703.94;;;-0.71;100.00
71567;BME280;59403;47.456;19.120;2022-11-21T05:32:40;99703.37;;;-0.76;100.00
71567;BME280;59403;47.456;19.120;2022-11-21T05:35:07;99703.50;;;-0.78;100.00
71567;BME280;59403;47.456;19.120;2022-11-21T05:37:34;99694.25;;;-0.82;100.00
71567;BME280;59403;47.456;19.120;2022-11-21T05:40:01;99693.41;;;-0.82;100.00
71567;BME280;59403;47.456;19.120;2022-11-21T05:42:28;99695.38;;;-0.86;100.00
71567;BME280;59403;47.456;19.120;2022-11-21T05:45:27;99688.53;;;-0.87;100.00
71567;BME280;59403;47.456;19.120;2022-11-21T05:47:55;99690.09;;;-0.84;100.00
71567;BME280;59403;47.456;19.120;2022-11-21T05:50:22;99689.97;;;-0.83;100.00
71567;BME280;59403;47.456;19.120;2022-11-21T05:52:49;99690.59;;;-0.79;100.00
71567;BME280;59403;47.456;19.120;2022-11-21T05:55:16;99682.69;;;-0.78;100.00
71567;BME280;59403;47.456;19.120;2022-11-21T05:57:43;99682.59;;;-0.76;100.00
71567;BME280;59403;47.456;19.120;2022-11-21T06:00:11;99690.94;;;-0.71;100.00
71567;BME280;59403;47.456;19.120;2022-11-21T06:02:38;99683.13;;;-0.71;100.00
71567;BME280;59403;47.456;19.120;2022-11-21T06:05:24;99672.63;;;-0.70;100.00
71567;BME280;59403;47.456;19.120;2022-11-21T06:07:51;99687.38;;;-0.70;100.00
71567;BME280;59403;47.456;19.120;2022-11-21T06:10:18;99687.38;;;-0.70;100.00
71567;BME280;59403;47.456;19.120;2022-11-21T06:12:44;99694.34;;;-0.71;100.00
71567;BME280;59403;47.456;19.120;2022-11-21T06:15:11;99694.25;;;-0.69;100.00
71567;BME280;59403;47.456;19.120;2022-11-21T06:17:38;99703.09;;;-0.72;100.00
71567;BME280;59403;47.456;19.120;2022-11-21T06:20:06;99696.31;;;-0.74;100.00
71567;BME280;59403;47.456;19.120;2022-11-21T06:22:34;99696.13;;;-0.71;100.00
71567;BME280;59403;47.456;19.120;2022-11-21T06:25:01;99695.16;;;-0.83;100.00
71567;BME280;59403;47.456;19.120;2022-11-21T06:27:28;99694.66;;;-0.75;100.00
71567;BME280;59403;47.456;19.120;2022-11-21T06:29:55;99695.50;;;-0.75;100.00
71567;BME280;59403;47.456;19.120;2022-11-21T06:32:22;99700.50;;;-0.72;100.00
71567;BME280;59403;47.456;19.120;2022-11-21T06:34:49;99694.56;;;-0.61;100.00
71567;BME280;59403;47.456;19.120;2022-11-21T06:37:15;99702.03;;;-0.69;100.00
71567;BME280;59403;47.456;19.120;2022-11-21T06:39:44;99709.66;;;-0.66;100.00
71567;BME280;59403;47.456;19.120;2022-11-21T06:42:10;99706.09;;;-0.65;100.00
71567;BME280;59403;47.456;19.120;2022-11-21T06:44:37;99710.69;;;-0.56;100.00
71567;BME280;59403;47.456;19.120;2022-11-21T06:47:04;99715.88;;;-0.56;100.00
71567;BME280;59403;47.456;19.120;2022-11-21T06:49:31;99717.88;;;-0.60;100.00
71567;BME280;59403;47.456;19.120;2022-11-21T06:51:58;99712.97;;;-0.52;100.00
71567;BME280;59403;47.456;19.120;2022-11-21T06:54:25;99726.06;;;-0.53;100.00
71567;BME280;59403;47.456;19.120;2022-11-21T06:56:53;99729.81;;;-0.57;100.00
71567;BME280;59403;47.456;19.120;2022-11-21T06:59:20;99734.19;;;-0.58;100.00
71567;BME280;59403;47.456;19.120;2022-11-21T07:01:47;99733.66;;;-0.50;100.00
71567;BME280;59403;47.456;19.120;2022-11-21T07:04:17;99723.88;;;-0.47;100.00
71567;BME280;59403;47.456;19.120;2022-11-21T07:06:46;99735.53;;;-0.40;100.00
71567;BME280;59403;47.456;19.120;2022-11-21T07:09:13;99744.28;;;-0.41;100.00
71567;BME280;59403;47.456;19.120;2022-11-21T07:11:40;99748.75;;;-0.30;100.00
71567;BME280;59403;47.456;19.120;2022-11-21T07:14:08;99750.13;;;-0.25;100.00
71567;BME280;59403;47.456;19.120;2022-11-21T07:16:34;99746.78;;;-0.14;100.00
71567;BME280;59403;47.456;19.120;2022-11-21T07:19:01;99748.72;;;-0.05;100.00
71567;BME280;59403;47.456;19.120;2022-11-21T07:21:28;99747.06;;;-0.06;100.00
71567;BME280;59403;47.456;19.120;2022-11-21T07:26:23;99745.25;;;0.07;100.00
71567;BME280;59403;47.456;19.120;2022-11-21T07:32:07;99728.09;;;0.05;100.00
71567;BME280;59403;47.456;19.120;2022-11-21T07:37:56;99740.75;;;0.22;100.00
71567;BME280;59403;47.456;19.120;2022-11-21T07:40:23;99743.59;;;0.19;100.00
71567;BME280;59403;47.456;19.120;2022-11-21T07:42:50;99746.59;;;0.13;100.00
71567;BME280;59403;47.456;19.120;2022-11-21T07:45:17;99745.69;;;0.14;100.00
71567;BME280;59403;47.456;19.120;2022-11-21T07:47:45;99747.03;;;0.19;100.00
71567;BME280;59403;47.456;19.120;2022-11-21T07:50:12;99748.56;;;0.22;100.00
71567;BME280;59403;47.456;19.120;2022-11-21T07:52:39;99753.28;;;0.17;100.00
71567;BME280;59403;47.456;19.120;2022-11-21T07:55:08;99753.06;;;0.07;100.00
71567;BME280;59403;47.456;19.120;2022-11-21T07:57:35;99750.66;;;0.17;100.00
71567;BME280;59403;47.456;19.120;2022-11-21T08:00:02;99759.44;;;0.16;100.00
71567;BME280;59403;47.456;19.120;2022-11-21T08:02:29;99756.72;;;0.05;100.00
71567;BME280;59403;47.456;19.120;2022-11-21T08:04:57;99755.66;;;0.07;100.00
71567;BME280;59403;47.456;19.120;2022-11-21T08:07:24;99752.03;;;0.10;100.00
71567;BME280;59403;47.456;19.120;2022-11-21T08:09:51;99760.13;;;0.18;100.00
71567;BME280;59403;47.456;19.120;2022-11-21T08:12:18;99759.00;;;0.22;100.00
71567;BME280;59403;47.456;19.120;2022-11-21T08:14:45;99770.75;;;0.27;100.00
71567;BME280;59403;47.456;19.120;2022-11-21T08:17:11;99764.59;;;0.28;100.00
71567;BME280;59403;47.456;19.120;2022-11-21T08:19:39;99762.66;;;0.19;100.00
71567;BME280;59403;47.456;19.120;2022-11-21T08:22:07;99763.16;;;0.24;100.00
71567;BME280;59403;47.456;19.120;2022-11-21T08:24:34;99768.38;;;0.24;100.00
71567;BME280;59403;47.456;19.120;2022-11-21T08:27:03;99772.22;;;0.31;100.00
71567;BME280;59403;47.456;19.120;2022-11-21T08:29:30;99777.19;;;0.34;100.00
71567;BME280;59403;47.456;19.120;2022-11-21T08:31:56;99771.97;;;0.34;100.00
71567;BME280;59403;47.456;19.120;2022-11-21T08:34:23;99781.03;;;0.41;100.00
71567;BME280;59403;47.456;19.120;2022-11-21T08:36:50;99784.97;;;0.47;100.00
71567;BME280;59403;47.456;19.120;2022-11-21T08:39:19;99783.00;;;0.50;100.00
71567;BME280;59403;47.456;19.120;2022-11-21T08:41:45;99787.13;;;0.53;100.00
71567;BME280;59403;47.456;19.120;2022-11-21T08:44:31;99786.38;;;0.63;100.00
71567;BME280;59403;47.456;19.120;2022-11-21T08:46:59;99785.88;;;0.58;100.00
71567;BME280;59403;47.456;19.120;2022-11-21T08:49:26;99782.63;;;0.67;100.00
71567;BME280;59403;47.456;19.120;2022-11-21T08:51:53;99785.44;;;0.64;100.00
71567;BME280;59403;47.456;19.120;2022-11-21T08:54:23;99789.19;;;0.60;100.00
71567;BME280;59403;47.456;19.120;2022-11-21T08:56:50;99793.03;;;0.67;100.00
71567;BME280;59403;47.456;19.120;2022-11-21T08:59:17;99790.94;;;0.72;100.00
71567;BME280;59403;47.456;19.120;2022-11-21T09:01:44;99796.03;;;0.74;100.00
71567;BME280;59403;47.456;19.120;2022-11-21T09:04:11;99794.66;;;0.81;100.00
71567;BME280;59403;47.456;19.120;2022-11-21T09:06:38;99786.06;;;0.91;100.00
71567;BME280;59403;47.456;19.120;2022-11-21T09:09:05;99792.59;;;0.97;100.00
71567;BME280;59403;47.456;19.120;2022-11-21T09:11:34;99792.50;;;0.98;100.00
71567;BME280;59403;47.456;19.120;2022-11-21T09:14:01;99785.28;;;1.02;100.00
71567;BME280;59403;47.456;19.120;2022-11-21T09:16:45;99787.59;;;0.94;100.00
71567;BME280;59403;47.456;19.120;2022-11-21T09:19:30;99781.22;;;0.98;100.00
71567;BME280;59403;47.456;19.120;2022-11-21T09:21:56;99770.06;;;0.96;100.00
71567;BME280;59403;47.456;19.120;2022-11-21T09:24:23;99773.56;;;0.84;100.00
71567;BME280;59403;47.456;19.120;2022-11-21T09:26:52;99780.28;;;0.99;100.00
71567;BME280;59403;47.456;19.120;2022-11-21T09:29:19;99777.84;;;1.08;100.00
71567;BME280;59403;47.456;19.120;2022-11-21T09:31:46;99774.28;;;1.09;100.00
71567;BME280;59403;47.456;19.120;2022-11-21T09:34:12;99772.25;;;1.13;100.00
71567;BME280;59403;47.456;19.120;2022-11-21T09:36:39;99763.41;;;1.15;100.00
71567;BME280;59403;47.456;19.120;2022-11-21T09:39:06;99764.13;;;1.17;100.00
71567;BME280;59403;47.456;19.120;2022-11-21T09:41:38;99768.19;;;1.22;100.00
71567;BME280;59403;47.456;19.120;2022-11-21T09:44:41;99762.44;;;1.16;100.00
71567;BME280;59403;47.456;19.120;2022-11-21T09:47:19;99766.50;;;1.21;100.00
71567;BME280;59403;47.456;19.120;2022-11-21T09:49:52;99770.78;;;1.22;100.00
71567;BME280;59403;47.456;19.120;2022-11-21T09:52:29;99772.09;;;1.27;100.00
71567;BME280;59403;47.456;19.120;2022-11-21T09:55:00;99777.41;;;1.26;100.00
71567;BME280;59403;47.456;19.120;2022-11-21T09:57:30;99777.78;;;1.32;100.00
71567;BME280;59403;47.456;19.120;2022-11-21T10:00:03;99772.31;;;1.24;100.00
71567;BME280;59403;47.456;19.120;2022-11-21T10:02:34;99761.09;;;1.35;100.00
71567;BME280;59403;47.456;19.120;2022-11-21T10:05:01;99760.97;;;1.36;100.00
71567;BME280;59403;47.456;19.120;2022-11-21T10:07:30;99759.69;;;1.42;100.00
71567;BME280;59403;47.456;19.120;2022-11-21T10:10:18;99765.28;;;1.48;100.00
71567;BME280;59403;47.456;19.120;2022-11-21T10:13:01;99770.63;;;1.58;100.00
71567;BME280;59403;47.456;19.120;2022-11-21T10:15:40;99774.09;;;1.69;100.00
71567;BME280;59403;47.456;19.120;2022-11-21T10:18:25;99764.25;;;1.73;100.00
71567;BME280;59403;47.456;19.120;2022-11-21T10:21:02;99768.78;;;1.82;100.00
71567;BME280;59403;47.456;19.120;2022-11-21T10:23:47;99764.03;;;1.87;100.00
71567;BME280;59403;47.456;19.120;2022-11-21T10:26:22;99767.84;;;1.94;100.00
71567;BME280;59403;47.456;19.120;2022-11-21T10:28:56;99759.63;;;1.98;100.00
71567;BME280;59403;47.456;19.120;2022-11-21T10:31:28;99755.97;;;2.01;100.00
71567;BME280;59403;47.456;19.120;2022-11-21T10:33:58;99753.94;;;2.04;100.00
71567;BME280;59403;47.456;19.120;2022-11-21T10:36:32;99746.12;;;2.04;100.00
71567;BME280;59403;47.456;19.120;2022-11-21T10:39:13;99737.56;;;2.13;100.00
71567;BME280;59403;47.456;19.120;2022-11-21T10:41:48;99740.41;;;2.21;100.00
71567;BME280;59403;47.456;19.120;2022-11-21T10:44:24;99728.91;;;2.24;100.00
71567;BME280;59403;47.456;19.120;2022-11-21T10:47:33;99732.09;;;2.27;100.00
71567;BME280;59403;47.456;19.120;2022-11-21T10:50:39;99727.81;;;2.38;100.00
71567;BME280;59403;47.456;19.120;2022-11-21T10:57:06;99730.16;;;2.29;100.00
71567;BME280;59403;47.456;19.120;2022-11-21T10:59:36;99741.66;;;2.49;100.00
71567;BME280;59403;47.456;19.120;2022-11-21T11:02:22;99733.09;;;2.47;100.00
71567;BME280;59403;47.456;19.120;2022-11-21T11:05:19;99726.81;;;2.50;100.00
71567;BME280;59403;47.456;19.120;2022-11-21T11:08:01;99731.91;;;2.62;100.00
71567;BME280;59403;47.456;19.120;2022-11-21T11:10:29;99723.28;;;2.71;100.00
71567;BME280;59403;47.456;19.120;2022-11-21T11:12:57;99722.62;;;2.69;100.00
71567;BME280;59403;47.456;19.120;2022-11-21T11:15:53;99723.34;;;2.60;100.00
71567;BME280;59403;47.456;19.120;2022-11-21T11:18:22;99718.59;;;2.65;100.00
71567;BME280;59403;47.456;19.120;2022-11-21T11:20:49;99721.41;;;2.73;100.00
71567;BME280;59403;47.456;19.120;2022-11-21T11:23:24;99722.50;;;2.71;100.00
71567;BME280;59403;47.456;19.120;2022-11-21T11:25:53;99722.81;;;2.77;100.00
71567;BME280;59403;47.456;19.120;2022-11-21T11:28:21;99718.03;;;2.82;100.00
71567;BME280;59403;47.456;19.120;2022-11-21T11:30:49;99716.12;;;2.84;100.00
71567;BME280;59403;47.456;19.120;2022-11-21T11:33:33;99712.19;;;2.90;100.00
71567;BME280;59403;47.456;19.120;2022-11-21T11:36:10;99703.25;;;2.92;100.00
71567;BME280;59403;47.456;19.120;2022-11-21T11:38:41;99706.09;;;3.00;100.00
71567;BME280;59403;47.456;19.120;2022-11-21T11:41:21;99703.94;;;3.05;100.00
71567;BME280;59403;47.456;19.120;2022-11-21T11:43:56;99695.69;;;3.10;100.00
71567;BME280;59403;47.456;19.120;2022-11-21T11:46:52;99692.56;;;3.16;100.00
71567;BME280;59403;47.456;19.120;2022-11-21T11:49:44;99683.50;;;3.20;100.00
71567;BME280;59403;47.456;19.120;2022-11-21T11:52:35;99694.16;;;3.28;100.00
71567;BME280;59403;47.456;19.120;2022-11-21T11:55:07;99682.09;;;3.36;100.00
71567;BME280;59403;47.456;19.120;2022-11-21T11:57:40;99679.91;;;3.41;100.00
71567;BME280;59403;47.456;19.120;2022-11-21T12:00:22;99670.16;;;3.43;100.00
71567;BME280;59403;47.456;19.120;2022-11-21T12:02:55;99672.91;;;3.42;100.00
71567;BME280;59403;47.456;19.120;2022-11-21T12:05:26;99669.19;;;3.44;100.00
71567;BME280;59403;47.456;19.120;2022-11-21T12:08:03;99664.09;;;3.43;100.00
71567;BME280;59403;47.456;19.120;2022-11-21T12:10:37;99669.06;;;3.46;100.00
71567;BME280;59403;47.456;19.120;2022-11-21T12:13:27;99662.75;;;3.48;100.00
71567;BME280;59403;47.456;19.120;2022-11-21T12:15:58;99657.50;;;3.48;100.00
71567;BME280;59403;47.456;19.120;2022-11-21T12:18:33;99659.47;;;3.56;100.00
71567;BME280;59403;47.456;19.120;2022-11-21T12:21:08;99649.59;;;3.60;100.00
71567;BME280;59403;47.456;19.120;2022-11-21T12:23:40;99642.53;;;3.60;100.00
71567;BME280;59403;47.456;19.120;2022-11-21T12:26:20;99631.12;;;3.61;100.00
71567;BME280;59403;47.456;19.120;2022-11-21T12:29:01;99631.12;;;3.61;100.00
71567;BME280;59403;47.456;19.120;2022-11-21T12:31:40;99636.50;;;3.60;100.00
71567;BME280;59403;47.456;19.120;2022-11-21T12:34:20;99637.84;;;3.54;100.00
71567;BME280;59403;47.456;19.120;2022-11-21T12:37:00;99634.38;;;3.54;100.00
71567;BME280;59403;47.456;19.120;2022-11-21T12:39:53;99632.59;;;3.54;100.00
71567;BME280;59403;47.456;19.120;2022-11-21T12:42:28;99637.72;;;3.56;100.00
71567;BME280;59403;47.456;19.120;2022-11-21T12:45:30;99630.56;;;3.58;100.00
71567;BME280;59403;47.456;19.120;2022-11-21T12:48:14;99633.19;;;3.58;100.00
71567;BME280;59403;47.456;19.120;2022-11-21T12:51:33;99638.13;;;3.61;100.00
71567;BME280;59403;47.456;19.120;2022-11-21T12:57:32;99623.84;;;3.74;100.00
71567;BME280;59403;47.456;19.120;2022-11-21T13:00:08;99629.94;;;3.84;100.00
71567;BME280;59403;47.456;19.120;2022-11-21T13:02:55;99621.56;;;3.90;100.00
71567;BME280;59403;47.456;19.120;2022-11-21T13:05:30;99624.19;;;4.00;100.00
71567;BME280;59403;47.456;19.120;2022-11-21T13:08:02;99623.81;;;4.04;100.00
71567;BME280;59403;47.456;19.120;2022-11-21T13:10:34;99622.28;;;4.02;100.00
71567;BME280;59403;47.456;19.120;2022-11-21T13:13:08;99627.37;;;4.03;100.00
71567;BME280;59403;47.456;19.120;2022-11-21T13:15:47;99627.69;;;4.10;100.00
71567;BME280;59403;47.456;19.120;2022-11-21T13:18:24;99630.97;;;4.12;100.00
71567;BME280;59403;47.456;19.120;2022-11-21T13:20:53;99633.03;;;4.08;100.00
71567;BME280;59403;47.456;19.120;2022-11-21T13:23:37;99629.44;;;4.00;100.00
71567;BME280;59403;47.456;19.120;2022-11-21T13:29:09;99643.91;;;3.94;100.00
71567;BME280;59403;47.456;19.120;2022-11-21T13:31:36;99628.63;;;3.99;100.00